This is the latest recevied weather packets stored in our database for station/object JH4GLG-13. If no packets are shown the sender has not sent any weather packets the latest 1 day(s).
| Time | Temp. | Humidity | Pressure | Rain* | Wind** | Luminosity | Snow |
|---|---|---|---|---|---|---|---|
| 1836273966 | 32.22° C | 66% | 1009.2 hPa | 0 mm | 0 m/s | - | - |
| 1778019094 | - | - | 1021.2 hPa | 0 mm | 0 m/s | - | - |
| 1778018194 | 12.78° C | 74% | 1021.2 hPa | 0 mm | 0 m/s | - | - |
| 1778017293 | 12.22° C | 75% | 1021.2 hPa | 0 mm | 0 m/s | - | - |
| 1778016394 | 11.67° C | 78% | 1021.1 hPa | 0 mm | 0 m/s | - | - |
| 1778015493 | 11.11° C | 81% | 1021.2 hPa | 0 mm | 0 m/s | - | - |
| 1778014595 | 11.11° C | 81% | 1021.1 hPa | 0 mm | 0 m/s | - | - |
| 1778013693 | 10.56° C | 81% | 1020.8 hPa | 0 mm | 0 m/s | - | - |
| 1778012794 | 10.56° C | 81% | 1020.7 hPa | 0 mm | 0 m/s | - | - |
| 1778011893 | 10.56° C | 80% | 1020.6 hPa | 0 mm | 0 m/s | - | - |
| 1778010994 | 11.11° C | 79% | 1020.6 hPa | 0 mm | 0 m/s | - | - |
| 1778010093 | 11.11° C | 80% | 1020.3 hPa | 0 mm | 0 m/s | - | - |
| 1778009193 | 11.11° C | 79% | 1020.3 hPa | 0 mm | 0 m/s | - | - |
| 1778008293 | 11.11° C | 78% | 1020.3 hPa | 0 mm | 0 m/s | - | - |
| 1778007393 | 11.11° C | 78% | 1020.4 hPa | 0 mm | 0 m/s | - | - |
| 1778006492 | 11.67° C | 77% | 1020.6 hPa | 0 mm | 0 m/s | - | - |
| 1778005593 | 11.67° C | 77% | 1020.7 hPa | 0 mm | 0 m/s | - | - |
| 1778004692 | 11.67° C | 76% | 1020.6 hPa | 0 mm | 0 m/s | - | - |
| 1778003793 | - | - | 1020.6 hPa | 0 mm | 0 m/s | - | - |
| 1778002892 | 11.67° C | 77% | 1020.7 hPa | 0 mm | 0 m/s | - | - |
| 1778002048 | 11.67° C | 77% | 1020.8 hPa | 0 mm | 0 m/s | - | - |
| 1778001992 | 11.67° C | 77% | 1020.8 hPa | 0 mm | 0 m/s | - | - |
| 1778001092 | 11.67° C | 75% | 1020.8 hPa | 0 mm | 0 m/s | - | - |
| 1778000192 | 12.22° C | 74% | 1020.9 hPa | 0 mm | 0 m/s | - | - |
| 1777999291 | 12.22° C | 73% | 1020.8 hPa | 0 mm | 0 m/s | - | - |
* Rain latest hour (hover to see other rain measurements)
** Current wind speed in m/s (hover to see current wind gust speed)